Stolt Shearwater — ZCRD9 — position and weather

sailwx.info

Track history (hours):
 
Tides and Currents Weather Stations Pressure Air Temp Water Temp Dewpoint Dewpoint Depression Visibility Wind Speed Wind Dir Waves Ship Positions

Stolt Shearwater

Last reported at 2017-Jun-24 18:30 UTC. Time now 2017-Jun-24 18:50 UTC.
Position N 51°53' E 004°18'.

Length 96 m; draft 5.7 m.

Type: Ship (hazmat cat B). MMSI: 319402000.

Date/timePositionNaut miles runAvg speedWind from/ knotsBaromVisibWave heightAir tempDewpointWater temp
2017-Jun-24 18:30N 51°53' E 004°18'0 0.0
2017-Jun-24 18:00N 51°53' E 004°18'0 0.0
2017-Jun-24 17:29N 51°53' E 004°18'0 0.0
2017-Jun-24 17:00N 51°53' E 004°18'0 0.0
2017-Jun-24 16:30N 51°53' E 004°18'0 0.0
2017-Jun-24 16:00N 51°53' E 004°18'0 0.0
2017-Jun-24 15:30N 51°53' E 004°18'0 0.0
2017-Jun-24 15:00N 51°53' E 004°18'0 0.0
2017-Jun-24 14:00N 51°53' E 004°18'0 0.0
2017-Jun-24 13:30N 51°53' E 004°18'0 0.0
2017-Jun-24 13:00N 51°53' E 004°18'0 0.0
2017-Jun-24 12:30N 51°53' E 004°18'0 0.0
2017-Jun-24 12:00N 51°53' E 004°18'0 0.0
2017-Jun-24 11:30N 51°53' E 004°18'0 0.0
2017-Jun-24 11:00N 51°53' E 004°18'0 0.0
2017-Jun-24 10:30N 51°53' E 004°18'0 0.0
2017-Jun-24 10:00N 51°53' E 004°18'0 0.0
2017-Jun-24 09:30N 51°53' E 004°18'0 0.0
2017-Jun-24 09:00N 51°53' E 004°18'0 0.0
2017-Jun-24 08:30N 51°53' E 004°18'0 0.0
2017-Jun-24 08:00N 51°53' E 004°18'0 0.0
2017-Jun-24 07:30N 51°53' E 004°18'0 0.0
2017-Jun-24 07:00N 51°53' E 004°18'0 0.0
2017-Jun-24 06:30N 51°53' E 004°18'0 0.0
2017-Jun-24 06:00N 51°53' E 004°18'0 0.0
2017-Jun-24 05:30N 51°53' E 004°18'0 0.0
2017-Jun-24 05:00N 51°53' E 004°18'0 0.0
2017-Jun-24 04:30N 51°53' E 004°18'0 0.0
2017-Jun-24 04:00N 51°53' E 004°18'0 0.0
2017-Jun-24 03:30N 51°53' E 004°18'0 0.0
2017-Jun-24 03:00N 51°53' E 004°18'0 0.0
2017-Jun-24 02:30N 51°53' E 004°18'0 0.0
2017-Jun-24 02:00N 51°53' E 004°18'0 0.0
2017-Jun-24 01:30N 51°53' E 004°18'0 0.0
2017-Jun-24 01:00N 51°53' E 004°18'0 0.0
2017-Jun-24 00:30N 51°53' E 004°18'0 0.0
2017-Jun-24 00:00N 51°53' E 004°18'0 0.0
2017-Jun-23 23:30N 51°53' E 004°18'0 0.0
2017-Jun-23 23:00N 51°53' E 004°18'0 0.0
2017-Jun-23 22:30N 51°53' E 004°18'0 0.0
2017-Jun-23 22:00N 51°53' E 004°18'0 0.0
2017-Jun-23 21:30N 51°53' E 004°18'0 0.0
2017-Jun-23 21:00N 51°53' E 004°18'0 0.0
2017-Jun-23 20:28N 51°53' E 004°18'0 0.0
2017-Jun-23 20:00N 51°53' E 004°18'0 0.0
2017-Jun-23 19:30N 51°53' E 004°18'0 0.0
2017-Jun-23 19:00N 51°53' E 004°18'0 0.0
2017-Jun-23 18:30N 51°53' E 004°18'0 0.0
2017-Jun-23 18:00N 51°53' E 004°18'0 0.0
2017-Jun-23 17:30N 51°53' E 004°18'0 0.0
2017-Jun-23 16:59N 51°53' E 004°18'0 0.0
2017-Jun-23 16:30N 51°53' E 004°18'0 0.0
2017-Jun-23 16:00N 51°53' E 004°18'0 0.0
2017-Jun-23 15:30N 51°53' E 004°18'0 0.0
2017-Jun-23 15:00N 51°53' E 004°18'0 0.0
2017-Jun-23 14:00N 51°53' E 004°18'0 0.0
2017-Jun-23 13:30N 51°53' E 004°18'0 0.0
2017-Jun-23 13:00N 51°53' E 004°18'0 0.0
2017-Jun-23 12:30N 51°53' E 004°18'0 0.0
2017-Jun-23 12:00N 51°53' E 004°18'0 0.5
2017-Jun-23 11:30N 51°53' E 004°18'1 2.1
2017-Jun-23 11:00N 51°54' E 004°18'5 9.3
2017-Jun-23 10:30N 51°56' E 004°12'5 9.5
2017-Jun-23 10:00N 51°59' E 004°05'510.5
2017-Jun-23 09:30N 52°00' E 003°57'5 9.6
2017-Jun-23 09:00N 52°00' E 003°49'3 6.7
2017-Jun-23 08:30N 51°59' E 003°44'1223.1
2017-Jun-23 08:00N 51°55' E 003°26'0 0.0
2017-Jun-23 07:30N 51°55' E 003°26'3 5.6
2017-Jun-23 06:58N 51°54' E 003°22'4 6.4
2017-Jun-23 06:23N 51°53' E 003°16'32 9.4
2017-Jun-23 03:01N 51°40' E 002°30'512.2
2017-Jun-23 02:37N 51°36' E 002°25'112.4
2017-Jun-23 02:30N 51°35' E 002°23'612.7
2017-Jun-23 02:00N 51°30' E 002°17'612.6
2017-Jun-23 01:30N 51°24' E 002°12'612.7
2017-Jun-23 01:00N 51°19' E 002°08'612.8
2017-Jun-23 00:30N 51°14' E 002°01'713.6
2017-Jun-23 00:00N 51°10' E 001°52'713.8
2017-Jun-22 23:31N 51°06' E 001°44'714.4
2017-Jun-22 23:01N 51°00' E 001°36'714.4
2017-Jun-22 22:30N 50°55' E 001°29'814.2
2017-Jun-22 21:57N 50°47' E 001°25'4712.7
2017-Jun-22 18:15N 50°23' E 000°22'513.6
2017-Jun-22 17:54N 50°22' E 000°14'513.3
2017-Jun-22 17:30N 50°20' E 000°07'612.9
2017-Jun-22 17:00N 50°19' W 000°03'612.4
2017-Jun-22 16:29N 50°17' W 000°13'1710.9
2017-Jun-22 14:58N 50°13' W 000°38'5 8.8
2017-Jun-22 14:21N 50°12' W 000°47'16 7.5
2017-Jun-22 12:16N 50°09' W 001°10'4 7.0
2017-Jun-22 11:46N 50°08' W 001°16'13 7.9
2017-Jun-22 10:07N 50°04' W 001°35'3 8.9
2017-Jun-22 09:46N 50°03' W 001°40'4 9.4
2017-Jun-22 09:22N 50°02' W 001°45'410.1
2017-Jun-22 08:59N 50°01' W 001°51'611.8
2017-Jun-22 08:26N 49°60' W 002°01'613.0
2017-Jun-22 07:58N 49°58' W 002°10'713.5
2017-Jun-22 07:26N 49°56' W 002°21'1213.7
2017-Jun-22 06:34N 49°53' W 002°39'413.9
2017-Jun-22 06:16N 49°52' W 002°45'413.7
2017-Jun-22 05:59N 49°50' W 002°50'613.5
2017-Jun-22 05:30N 49°49' W 003°00'713.1
2017-Jun-22 05:00N 49°49' W 003°10'713.0
2017-Jun-22 04:30N 49°49' W 003°21'612.9
2017-Jun-22 04:00N 49°49' W 003°30'813.0
2017-Jun-22 03:25N 49°50' W 003°42'512.9
2017-Jun-22 03:00N 49°50' W 003°50'712.9
2017-Jun-22 02:26N 49°50' W 004°02'612.6
2017-Jun-22 01:58N 49°50' W 004°11'712.4
2017-Jun-22 01:23N 49°50' W 004°22'512.1
2017-Jun-22 00:59N 49°50' W 004°30'611.9
2017-Jun-22 00:29N 49°50' W 004°39'611.6
2017-Jun-22 00:00N 49°50' W 004°48'611.5
2017-Jun-21 23:28N 49°50' W 004°57'511.3
2017-Jun-21 23:01N 49°51' W 005°05'610.7
2017-Jun-21 22:28N 49°52' W 005°14'510.1
2017-Jun-21 21:58N 49°52' W 005°22'610.7
2017-Jun-21 21:23N 49°52' W 005°32'22 9.0
2017-Jun-21 18:56N 50°04' W 006°00'512.8
2017-Jun-21 18:30N 50°10' W 006°00'612.6
2017-Jun-21 18:00N 50°16' W 005°60'612.4
2017-Jun-21 17:28N 50°23' W 005°60'712.0
2017-Jun-21 16:52N 50°30' W 005°60'411.4
2017-Jun-21 16:29N 50°34' W 005°60'611.3
2017-Jun-21 15:59N 50°40' W 005°59'511.1
2017-Jun-21 15:29N 50°46' W 005°59'510.9
2017-Jun-21 15:01N 50°51' W 005°59'610.8
2017-Jun-21 14:27N 50°57' W 005°60'1010.7
2017-Jun-21 13:30N 51°07' W 006°01'1111.1
2017-Jun-21 12:33N 51°18' W 006°01'311.6
2017-Jun-21 12:17N 51°21' W 006°01'1212.0
2017-Jun-21 11:16N 51°33' W 006°01'14310.6
2017-Jun-20 21:45N 53°34' W 003°55'312.9
2017-Jun-20 21:30N 53°34' W 003°50'612.4
2017-Jun-20 21:00N 53°34' W 003°39'612.0
2017-Jun-20 20:30N 53°33' W 003°29'611.7
2017-Jun-20 20:00N 53°32' W 003°19'5 9.7
2017-Jun-20 19:30N 53°31' W 003°11'5 9.5
2017-Jun-20 19:00N 53°29' W 003°05'5 9.1
2017-Jun-20 18:30N 53°25' W 003°01'4 8.1
2017-Jun-20 18:00N 53°21' W 002°58'2 4.3
2017-Jun-20 17:30N 53°19' W 002°57'0 0.6
2017-Jun-20 17:00N 53°19' W 002°57'0 0.0
2017-Jun-20 16:27N 53°19' W 002°57'0 0.0
2017-Jun-20 16:00N 53°19' W 002°57'0 0.0
2017-Jun-20 15:30N 53°19' W 002°57'0 0.0
2017-Jun-20 15:00N 53°19' W 002°57'0 0.0
2017-Jun-20 14:00N 53°19' W 002°57'0 0.0
2017-Jun-20 13:30N 53°19' W 002°57'0 0.0
2017-Jun-20 13:00N 53°19' W 002°57'0 0.0
2017-Jun-20 12:30N 53°19' W 002°57'0 0.0
2017-Jun-20 12:00N 53°19' W 002°57'0 0.0
2017-Jun-20 11:21N 53°19' W 002°57'0 0.0
2017-Jun-20 11:00N 53°19' W 002°57'0 0.4
2017-Jun-20 10:30N 53°19' W 002°56'2 4.1
2017-Jun-20 10:00N 53°18' W 002°54'2 3.9
2017-Jun-20 09:30N 53°17' W 002°51'0 0.0
2017-Jun-20 09:00N 53°17' W 002°51'0 0.0
2017-Jun-20 08:27N 53°17' W 002°51'0 0.0
2017-Jun-20 08:00N 53°17' W 002°51'0 0.0
2017-Jun-20 07:30N 53°17' W 002°51'0 0.0
2017-Jun-20 06:57N 53°17' W 002°51'0 0.0
2017-Jun-20 06:30N 53°17' W 002°51'0 0.0
2017-Jun-20 06:00N 53°17' W 002°51'0 0.0
2017-Jun-20 05:30N 53°17' W 002°51'0 0.0
2017-Jun-20 05:00N 53°17' W 002°51'0 0.0
2017-Jun-20 04:30N 53°17' W 002°51'0 0.0
2017-Jun-20 04:00N 53°17' W 002°51'0 0.0
2017-Jun-20 03:30N 53°17' W 002°51'0 0.0
2017-Jun-20 03:00N 53°17' W 002°51'0 0.0
2017-Jun-20 02:30N 53°17' W 002°51'0 0.0
2017-Jun-20 02:00N 53°17' W 002°51'0 0.0
2017-Jun-20 01:30N 53°17' W 002°51'0 0.0
2017-Jun-20 01:00N 53°17' W 002°51'0 0.0
2017-Jun-20 00:30N 53°17' W 002°51'0 0.0
2017-Jun-20 00:00N 53°17' W 002°51'0 0.0
2017-Jun-19 23:30N 53°17' W 002°51'0 0.0
2017-Jun-19 22:57N 53°17' W 002°51'0 0.0
2017-Jun-19 22:30N 53°17' W 002°51'1 1.7
2017-Jun-19 22:00N 53°17' W 002°52'0 0.0
2017-Jun-19 21:30N 53°17' W 002°52'0 0.0
2017-Jun-19 21:00N 53°17' W 002°52'0 0.0
2017-Jun-19 20:24N 53°17' W 002°52'0 0.0
2017-Jun-19 20:00N 53°17' W 002°52'0 0.0
2017-Jun-19 19:30N 53°17' W 002°52'0 0.0
2017-Jun-19 18:48N 53°17' W 002°52'0 0.0
2017-Jun-19 18:30N 53°17' W 002°52'0 0.0
2017-Jun-19 18:00N 53°17' W 002°52'0 0.0
2017-Jun-19 17:30N 53°17' W 002°52'0 0.0
2017-Jun-19 17:00N 53°17' W 002°52'0 0.0
2017-Jun-19 16:30N 53°17' W 002°52'0 0.0
2017-Jun-19 16:00N 53°17' W 002°52'0 0.0
2017-Jun-19 15:30N 53°17' W 002°52'0 0.0
2017-Jun-19 15:00N 53°17' W 002°52'0 0.0
2017-Jun-19 13:57N 53°17' W 002°52'0 0.0
2017-Jun-19 13:30N 53°17' W 002°52'0 0.0
2017-Jun-19 12:48N 53°17' W 002°52'0 0.0
2017-Jun-19 12:30N 53°17' W 002°52'0 0.0
2017-Jun-19 11:57N 53°17' W 002°52'0 0.0
2017-Jun-19 11:30N 53°17' W 002°52'0 0.0
2017-Jun-19 11:00N 53°17' W 002°52'0 0.0
2017-Jun-19 10:30N 53°17' W 002°52'0 0.0
2017-Jun-19 10:00N 53°17' W 002°52'0 0.0
2017-Jun-19 09:30N 53°17' W 002°52'0 0.0
2017-Jun-19 08:48N 53°17' W 002°52'0 0.0
2017-Jun-19 08:30N 53°17' W 002°52'0 0.0
2017-Jun-19 07:54N 53°17' W 002°52'0 0.0
2017-Jun-19 07:27N 53°17' W 002°52'0 0.0
2017-Jun-19 07:00N 53°17' W 002°52'0 0.0
2017-Jun-19 06:30N 53°17' W 002°52'0 0.0
2017-Jun-19 05:57N 53°17' W 002°52'0 0.0
2017-Jun-19 05:27N 53°17' W 002°52'0 0.0
2017-Jun-19 04:57N 53°17' W 002°52'0 0.0
2017-Jun-19 04:30N 53°17' W 002°52'0 0.0
2017-Jun-19 04:00N 53°17' W 002°52'0 0.0
2017-Jun-19 03:30N 53°17' W 002°52'0 0.0
2017-Jun-19 03:00N 53°17' W 002°52'0 0.0
2017-Jun-19 02:30N 53°17' W 002°52'0 0.0
2017-Jun-19 02:00N 53°17' W 002°52'0 0.0
2017-Jun-19 01:30N 53°17' W 002°52'0 0.0
2017-Jun-19 00:54N 53°17' W 002°52'0 0.0
2017-Jun-19 00:30N 53°17' W 002°52'0 0.0
2017-Jun-19 00:00N 53°17' W 002°52'0 0.0
2017-Jun-18 23:30N 53°17' W 002°52'0 0.0
2017-Jun-18 23:00N 53°17' W 002°52'0 0.0
2017-Jun-18 22:30N 53°17' W 002°52'0 0.0
2017-Jun-18 21:57N 53°17' W 002°52'0 0.0
2017-Jun-18 21:30N 53°17' W 002°52'0 0.0
2017-Jun-18 20:57N 53°17' W 002°52'0 0.0
2017-Jun-18 20:18N 53°17' W 002°52'0 0.0
2017-Jun-18 20:00N 53°17' W 002°52'0 0.0
2017-Jun-18 19:30N 53°17' W 002°52'0 0.0
2017-Jun-18 19:00N 53°17' W 002°52'0 0.0
2017-Jun-18 18:24N 53°17' W 002°52'0 0.0
2017-Jun-18 18:00N 53°17' W 002°52'0 0.0
2017-Jun-18 17:27N 53°17' W 002°52'0 0.0
2017-Jun-18 17:00N 53°17' W 002°52'0 0.0
2017-Jun-18 16:27N 53°17' W 002°52'0 0.0
2017-Jun-18 16:00N 53°17' W 002°52'0 0.0
2017-Jun-18 15:27N 53°17' W 002°52'0 0.0
2017-Jun-18 14:48N 53°17' W 002°52'0 0.0
2017-Jun-18 14:00N 53°17' W 002°52'0 0.0
2017-Jun-18 13:30N 53°17' W 002°52'0 0.0
2017-Jun-18 13:00N 53°17' W 002°52'0 0.0
2017-Jun-18 12:30N 53°17' W 002°52'0 0.0
2017-Jun-18 12:00N 53°17' W 002°52'0 0.0
2017-Jun-18 11:30N 53°17' W 002°52'0 0.0
2017-Jun-18 11:00N 53°17' W 002°52'0 0.0
2017-Jun-18 10:30N 53°17' W 002°52'0 0.0
2017-Jun-18 09:57N 53°17' W 002°52'0 0.0
2017-Jun-18 09:27N 53°17' W 002°52'0 0.0
2017-Jun-18 09:00N 53°17' W 002°52'0 0.0
2017-Jun-18 08:27N 53°17' W 002°52'0 0.0
2017-Jun-18 08:00N 53°17' W 002°52'0 0.0
2017-Jun-18 07:27N 53°17' W 002°52'0 0.0
2017-Jun-18 07:00N 53°17' W 002°52'0 0.0
2017-Jun-18 06:30N 53°17' W 002°52'1 1.2
2017-Jun-18 05:56N 53°17' W 002°51'0 0.0
2017-Jun-18 05:26N 53°17' W 002°51'0 0.0
2017-Jun-18 04:59N 53°17' W 002°51'0 0.0
2017-Jun-18 04:29N 53°17' W 002°51'0 0.0
2017-Jun-18 03:59N 53°17' W 002°51'0 0.0
2017-Jun-18 03:29N 53°17' W 002°51'0 0.0
2017-Jun-18 02:59N 53°17' W 002°51'0 0.0
2017-Jun-18 02:26N 53°17' W 002°51'0 0.0
2017-Jun-18 01:59N 53°17' W 002°51'0 0.0
2017-Jun-18 01:29N 53°17' W 002°51'0 0.0
2017-Jun-18 00:59N 53°17' W 002°51'0 0.5
2017-Jun-18 00:29N 53°17' W 002°51'0 0.7
2017-Jun-17 23:50N 53°17' W 002°52'0 0.0
2017-Jun-17 23:29N 53°17' W 002°52'0 0.0
2017-Jun-17 22:59N 53°17' W 002°52'0 0.0
2017-Jun-17 22:29N 53°17' W 002°52'0 0.0
2017-Jun-17 21:59N 53°17' W 002°52'0 0.0
2017-Jun-17 21:29N 53°17' W 002°52'0 0.0
2017-Jun-17 20:59N 53°17' W 002°52'0 0.0
2017-Jun-17 20:29N 53°17' W 002°52'0 0.0
2017-Jun-17 19:59N 53°17' W 002°52'0 0.0
2017-Jun-17 19:29N 53°17' W 002°52'0 0.0
2017-Jun-17 18:59N 53°17' W 002°52'0 0.0
2017-Jun-17 18:26N 53°17' W 002°52'0 0.0
2017-Jun-17 17:56N 53°17' W 002°52'0 0.0
2017-Jun-17 17:29N 53°17' W 002°52'0 0.0
2017-Jun-17 16:59N 53°17' W 002°52'0 0.0
2017-Jun-17 16:29N 53°17' W 002°52'0 0.0
2017-Jun-17 15:59N 53°17' W 002°52'0 0.0
2017-Jun-17 15:29N 53°17' W 002°52'0 0.0
2017-Jun-17 14:59N 53°17' W 002°52'0 0.0
2017-Jun-17 13:59N 53°17' W 002°52'0 0.0
2017-Jun-17 13:29N 53°17' W 002°52'0 0.0
2017-Jun-17 12:59N 53°17' W 002°52'0 0.0
2017-Jun-17 12:29N 53°17' W 002°52'0 0.0
2017-Jun-17 11:59N 53°17' W 002°52'0 0.0
2017-Jun-17 11:29N 53°17' W 002°52'0 0.0
2017-Jun-17 10:59N 53°17' W 002°52'0 0.0
2017-Jun-17 10:29N 53°17' W 002°52'0 0.0
2017-Jun-17 09:59N 53°17' W 002°52'0 0.0
2017-Jun-17 09:29N 53°17' W 002°52'0 0.0
2017-Jun-17 08:59N 53°17' W 002°52'0 0.0
2017-Jun-17 08:26N 53°17' W 002°52'0 0.0
2017-Jun-17 07:59N 53°17' W 002°52'0 0.0
2017-Jun-17 07:29N 53°17' W 002°52'0 0.0
2017-Jun-17 06:50N 53°17' W 002°52'0 0.0
2017-Jun-17 06:30N 53°17' W 002°52'0 1.0
2017-Jun-17 06:00N 53°17' W 002°53'2 3.3
2017-Jun-17 05:30N 53°18' W 002°55'1 3.0
2017-Jun-17 05:00N 53°19' W 002°57'1 1.3
2017-Jun-17 04:30N 53°20' W 002°57'2 3.7
2017-Jun-17 04:00N 53°22' W 002°58'2 4.9
2017-Jun-17 03:30N 53°24' W 003°00'3 6.8
2017-Jun-17 03:00N 53°27' W 003°02'4 8.2
2017-Jun-17 02:30N 53°30' W 003°06'4 7.2
2017-Jun-17 02:00N 53°31' W 003°12'4 8.7
2017-Jun-17 01:30N 53°31' W 003°19'4 7.5
2017-Jun-17 01:00N 53°30' W 003°25'0 0.6
2017-Jun-17 00:28N 53°29' W 003°25'0 0.0
2017-Jun-16 23:58N 53°29' W 003°25'0 0.0
2017-Jun-16 23:25N 53°29' W 003°25'0 0.0
2017-Jun-16 22:58N 53°29' W 003°25'0 0.0
2017-Jun-16 22:28N 53°29' W 003°25'0 0.0
2017-Jun-16 21:55N 53°29' W 003°25'0 0.0
2017-Jun-16 21:28N 53°29' W 003°25'0 0.0
2017-Jun-16 20:58N 53°29' W 003°25'0 0.1
2017-Jun-16 20:25N 53°29' W 003°26'0 0.0
2017-Jun-16 19:58N 53°29' W 003°26'0 0.0
2017-Jun-16 19:25N 53°29' W 003°26'0 0.0
2017-Jun-16 18:58N 53°29' W 003°26'0 0.0
2017-Jun-16 18:28N 53°29' W 003°26'0 0.0
2017-Jun-16 17:58N 53°29' W 003°26'0 0.2
2017-Jun-16 17:31N 53°29' W 003°25'4 8.5
2017-Jun-16 17:00N 53°30' W 003°33'5 9.7
2017-Jun-16 16:30N 53°31' W 003°41'5 9.8
2017-Jun-16 16:00N 53°33' W 003°48'610.1
2017-Jun-16 15:27N 53°35' W 003°57'68 4.9
2017-Jun-16 01:39N 53°16' W 005°45'1 3.7
2017-Jun-16 01:25N 53°16' W 005°47'2 3.6
2017-Jun-16 00:59N 53°17' W 005°49'2 3.9
2017-Jun-16 00:30N 53°18' W 005°51'2 4.2
2017-Jun-16 00:00N 53°20' W 005°54'2 4.3
2017-Jun-15 23:30N 53°20' W 005°57'2 4.5
2017-Jun-15 23:00N 53°21' W 006°01'3 6.1
2017-Jun-15 22:30N 53°20' W 006°06'4 0.8
2017-Jun-15 18:01N 53°21' W 006°12'0 0.0
2017-Jun-15 17:31N 53°21' W 006°12'0 0.0
2017-Jun-15 17:28N 53°21' W 006°12'0 0.0
2017-Jun-15 16:55N 53°21' W 006°12'0 0.0
2017-Jun-15 16:28N 53°21' W 006°12'0 0.0
2017-Jun-15 15:55N 53°21' W 006°12'0 0.0
2017-Jun-15 15:22N 53°21' W 006°12'0 0.0
2017-Jun-15 14:49N 53°21' W 006°12'0 0.0
2017-Jun-15 13:40N 53°21' W 006°12'0 0.0
2017-Jun-15 13:28N 53°21' W 006°12'0 0.0
2017-Jun-15 11:52N 53°21' W 006°12'0 0.0
2017-Jun-15 11:22N 53°21' W 006°12'0 0.0
2017-Jun-15 10:13N 53°21' W 006°12'0 0.0
2017-Jun-15 09:40N 53°21' W 006°12'0 0.0
2017-Jun-15 09:28N 53°21' W 006°12'0 0.0
2017-Jun-15 08:58N 53°21' W 006°12'0 0.0
2017-Jun-15 08:28N 53°21' W 006°12'0 0.0
2017-Jun-15 07:28N 53°21' W 006°12'0 0.0
2017-Jun-15 06:52N 53°21' W 006°12'0 0.0
2017-Jun-15 06:22N 53°21' W 006°12'0 0.9
2017-Jun-15 06:00N 53°21' W 006°12'4 9.0
2017-Jun-15 05:30N 53°20' W 006°05'4 8.5
2017-Jun-15 05:00N 53°16' W 006°01'55 8.9
2017-Jun-14 22:46N 52°21' W 005°55'312.2
2017-Jun-14 22:29N 52°18' W 005°56'611.6
2017-Jun-14 22:00N 52°12' W 005°58'711.1
2017-Jun-14 21:24N 52°06' W 006°02'411.0
2017-Jun-14 21:00N 52°03' W 006°08'710.4
2017-Jun-14 20:22N 51°60' W 006°17'1510.0
2017-Jun-14 18:50N 51°53' W 006°39'  
Track history (hours):
 
Tides and Currents Weather Stations Pressure Air Temp Water Temp Dewpoint Dewpoint Depression Visibility Wind Speed Wind Dir Waves Ship Positions

Stolt Shearwater

Last reported at 2017-Jun-24 18:30 UTC. Time now 2017-Jun-24 18:50 UTC.
Position N 51°53' E 004°18'.

Length 96 m; draft 5.7 m.

Type: Ship (hazmat cat B). MMSI: 319402000.

Date/timePositionNaut miles runAvg speedWind from/ knotsBaromVisibWave heightAir tempDewpointWater temp
2017-Jun-24 18:30N 51°53' E 004°18'0 0.0
2017-Jun-24 18:00N 51°53' E 004°18'0 0.0
2017-Jun-24 17:29N 51°53' E 004°18'0 0.0
2017-Jun-24 17:00N 51°53' E 004°18'0 0.0
2017-Jun-24 16:30N 51°53' E 004°18'0 0.0
2017-Jun-24 16:00N 51°53' E 004°18'0 0.0
2017-Jun-24 15:30N 51°53' E 004°18'0 0.0
2017-Jun-24 15:00N 51°53' E 004°18'0 0.0
2017-Jun-24 14:00N 51°53' E 004°18'0 0.0
2017-Jun-24 13:30N 51°53' E 004°18'0 0.0
2017-Jun-24 13:00N 51°53' E 004°18'0 0.0
2017-Jun-24 12:30N 51°53' E 004°18'0 0.0
2017-Jun-24 12:00N 51°53' E 004°18'0 0.0
2017-Jun-24 11:30N 51°53' E 004°18'0 0.0
2017-Jun-24 11:00N 51°53' E 004°18'0 0.0
2017-Jun-24 10:30N 51°53' E 004°18'0 0.0
2017-Jun-24 10:00N 51°53' E 004°18'0 0.0
2017-Jun-24 09:30N 51°53' E 004°18'0 0.0
2017-Jun-24 09:00N 51°53' E 004°18'0 0.0
2017-Jun-24 08:30N 51°53' E 004°18'0 0.0
2017-Jun-24 08:00N 51°53' E 004°18'0 0.0
2017-Jun-24 07:30N 51°53' E 004°18'0 0.0
2017-Jun-24 07:00N 51°53' E 004°18'0 0.0
2017-Jun-24 06:30N 51°53' E 004°18'0 0.0
2017-Jun-24 06:00N 51°53' E 004°18'0 0.0
2017-Jun-24 05:30N 51°53' E 004°18'0 0.0
2017-Jun-24 05:00N 51°53' E 004°18'0 0.0
2017-Jun-24 04:30N 51°53' E 004°18'0 0.0
2017-Jun-24 04:00N 51°53' E 004°18'0 0.0
2017-Jun-24 03:30N 51°53' E 004°18'0 0.0
2017-Jun-24 03:00N 51°53' E 004°18'0 0.0
2017-Jun-24 02:30N 51°53' E 004°18'0 0.0
2017-Jun-24 02:00N 51°53' E 004°18'0 0.0
2017-Jun-24 01:30N 51°53' E 004°18'0 0.0
2017-Jun-24 01:00N 51°53' E 004°18'0 0.0
2017-Jun-24 00:30N 51°53' E 004°18'0 0.0
2017-Jun-24 00:00N 51°53' E 004°18'0 0.0
2017-Jun-23 23:30N 51°53' E 004°18'0 0.0
2017-Jun-23 23:00N 51°53' E 004°18'0 0.0
2017-Jun-23 22:30N 51°53' E 004°18'0 0.0
2017-Jun-23 22:00N 51°53' E 004°18'0 0.0
2017-Jun-23 21:30N 51°53' E 004°18'0 0.0
2017-Jun-23 21:00N 51°53' E 004°18'0 0.0
2017-Jun-23 20:28N 51°53' E 004°18'0 0.0
2017-Jun-23 20:00N 51°53' E 004°18'0 0.0
2017-Jun-23 19:30N 51°53' E 004°18'0 0.0
2017-Jun-23 19:00N 51°53' E 004°18'0 0.0
2017-Jun-23 18:30N 51°53' E 004°18'0 0.0
2017-Jun-23 18:00N 51°53' E 004°18'0 0.0
2017-Jun-23 17:30N 51°53' E 004°18'0 0.0
2017-Jun-23 16:59N 51°53' E 004°18'0 0.0
2017-Jun-23 16:30N 51°53' E 004°18'0 0.0
2017-Jun-23 16:00N 51°53' E 004°18'0 0.0
2017-Jun-23 15:30N 51°53' E 004°18'0 0.0
2017-Jun-23 15:00N 51°53' E 004°18'0 0.0
2017-Jun-23 14:00N 51°53' E 004°18'0 0.0
2017-Jun-23 13:30N 51°53' E 004°18'0 0.0
2017-Jun-23 13:00N 51°53' E 004°18'0 0.0
2017-Jun-23 12:30N 51°53' E 004°18'0 0.0
2017-Jun-23 12:00N 51°53' E 004°18'0 0.5
2017-Jun-23 11:30N 51°53' E 004°18'1 2.1
2017-Jun-23 11:00N 51°54' E 004°18'5 9.3
2017-Jun-23 10:30N 51°56' E 004°12'5 9.5
2017-Jun-23 10:00N 51°59' E 004°05'510.5
2017-Jun-23 09:30N 52°00' E 003°57'5 9.6
2017-Jun-23 09:00N 52°00' E 003°49'3 6.7
2017-Jun-23 08:30N 51°59' E 003°44'1223.1
2017-Jun-23 08:00N 51°55' E 003°26'0 0.0
2017-Jun-23 07:30N 51°55' E 003°26'3 5.6
2017-Jun-23 06:58N 51°54' E 003°22'4 6.4
2017-Jun-23 06:23N 51°53' E 003°16'32 9.4
2017-Jun-23 03:01N 51°40' E 002°30'512.2
2017-Jun-23 02:37N 51°36' E 002°25'112.4
2017-Jun-23 02:30N 51°35' E 002°23'612.7
2017-Jun-23 02:00N 51°30' E 002°17'612.6
2017-Jun-23 01:30N 51°24' E 002°12'612.7
2017-Jun-23 01:00N 51°19' E 002°08'612.8
2017-Jun-23 00:30N 51°14' E 002°01'713.6
2017-Jun-23 00:00N 51°10' E 001°52'713.8
2017-Jun-22 23:31N 51°06' E 001°44'714.4
2017-Jun-22 23:01N 51°00' E 001°36'714.4
2017-Jun-22 22:30N 50°55' E 001°29'814.2
2017-Jun-22 21:57N 50°47' E 001°25'4712.7
2017-Jun-22 18:15N 50°23' E 000°22'513.6
2017-Jun-22 17:54N 50°22' E 000°14'513.3
2017-Jun-22 17:30N 50°20' E 000°07'612.9
2017-Jun-22 17:00N 50°19' W 000°03'612.4
2017-Jun-22 16:29N 50°17' W 000°13'1710.9
2017-Jun-22 14:58N 50°13' W 000°38'5 8.8
2017-Jun-22 14:21N 50°12' W 000°47'16 7.5
2017-Jun-22 12:16N 50°09' W 001°10'4 7.0
2017-Jun-22 11:46N 50°08' W 001°16'13 7.9
2017-Jun-22 10:07N 50°04' W 001°35'3 8.9
2017-Jun-22 09:46N 50°03' W 001°40'4 9.4
2017-Jun-22 09:22N 50°02' W 001°45'410.1
2017-Jun-22 08:59N 50°01' W 001°51'611.8
2017-Jun-22 08:26N 49°60' W 002°01'613.0
2017-Jun-22 07:58N 49°58' W 002°10'713.5
2017-Jun-22 07:26N 49°56' W 002°21'1213.7
2017-Jun-22 06:34N 49°53' W 002°39'413.9
2017-Jun-22 06:16N 49°52' W 002°45'413.7
2017-Jun-22 05:59N 49°50' W 002°50'613.5
2017-Jun-22 05:30N 49°49' W 003°00'713.1
2017-Jun-22 05:00N 49°49' W 003°10'713.0
2017-Jun-22 04:30N 49°49' W 003°21'612.9
2017-Jun-22 04:00N 49°49' W 003°30'813.0
2017-Jun-22 03:25N 49°50' W 003°42'512.9
2017-Jun-22 03:00N 49°50' W 003°50'712.9
2017-Jun-22 02:26N 49°50' W 004°02'612.6
2017-Jun-22 01:58N 49°50' W 004°11'712.4
2017-Jun-22 01:23N 49°50' W 004°22'512.1
2017-Jun-22 00:59N 49°50' W 004°30'611.9
2017-Jun-22 00:29N 49°50' W 004°39'611.6
2017-Jun-22 00:00N 49°50' W 004°48'611.5
2017-Jun-21 23:28N 49°50' W 004°57'511.3
2017-Jun-21 23:01N 49°51' W 005°05'610.7
2017-Jun-21 22:28N 49°52' W 005°14'510.1
2017-Jun-21 21:58N 49°52' W 005°22'610.7
2017-Jun-21 21:23N 49°52' W 005°32'22 9.0
2017-Jun-21 18:56N 50°04' W 006°00'512.8
2017-Jun-21 18:30N 50°10' W 006°00'612.6
2017-Jun-21 18:00N 50°16' W 005°60'612.4
2017-Jun-21 17:28N 50°23' W 005°60'712.0
2017-Jun-21 16:52N 50°30' W 005°60'411.4
2017-Jun-21 16:29N 50°34' W 005°60'611.3
2017-Jun-21 15:59N 50°40' W 005°59'511.1
2017-Jun-21 15:29N 50°46' W 005°59'510.9
2017-Jun-21 15:01N 50°51' W 005°59'610.8
2017-Jun-21 14:27N 50°57' W 005°60'1010.7
2017-Jun-21 13:30N 51°07' W 006°01'1111.1
2017-Jun-21 12:33N 51°18' W 006°01'311.6
2017-Jun-21 12:17N 51°21' W 006°01'1212.0
2017-Jun-21 11:16N 51°33' W 006°01'14310.6
2017-Jun-20 21:45N 53°34' W 003°55'312.9
2017-Jun-20 21:30N 53°34' W 003°50'612.4
2017-Jun-20 21:00N 53°34' W 003°39'612.0
2017-Jun-20 20:30N 53°33' W 003°29'611.7
2017-Jun-20 20:00N 53°32' W 003°19'5 9.7
2017-Jun-20 19:30N 53°31' W 003°11'5 9.5
2017-Jun-20 19:00N 53°29' W 003°05'5 9.1
2017-Jun-20 18:30N 53°25' W 003°01'4 8.1
2017-Jun-20 18:00N 53°21' W 002°58'2 4.3
2017-Jun-20 17:30N 53°19' W 002°57'0 0.6
2017-Jun-20 17:00N 53°19' W 002°57'0 0.0
2017-Jun-20 16:27N 53°19' W 002°57'0 0.0
2017-Jun-20 16:00N 53°19' W 002°57'0 0.0
2017-Jun-20 15:30N 53°19' W 002°57'0 0.0
2017-Jun-20 15:00N 53°19' W 002°57'0 0.0
2017-Jun-20 14:00N 53°19' W 002°57'0 0.0
2017-Jun-20 13:30N 53°19' W 002°57'0 0.0
2017-Jun-20 13:00N 53°19' W 002°57'0 0.0
2017-Jun-20 12:30N 53°19' W 002°57'0 0.0
2017-Jun-20 12:00N 53°19' W 002°57'0 0.0
2017-Jun-20 11:21N 53°19' W 002°57'0 0.0
2017-Jun-20 11:00N 53°19' W 002°57'0 0.4
2017-Jun-20 10:30N 53°19' W 002°56'2 4.1
2017-Jun-20 10:00N 53°18' W 002°54'2 3.9
2017-Jun-20 09:30N 53°17' W 002°51'0 0.0
2017-Jun-20 09:00N 53°17' W 002°51'0 0.0
2017-Jun-20 08:27N 53°17' W 002°51'0 0.0
2017-Jun-20 08:00N 53°17' W 002°51'0 0.0
2017-Jun-20 07:30N 53°17' W 002°51'0 0.0
2017-Jun-20 06:57N 53°17' W 002°51'0 0.0
2017-Jun-20 06:30N 53°17' W 002°51'0 0.0
2017-Jun-20 06:00N 53°17' W 002°51'0 0.0
2017-Jun-20 05:30N 53°17' W 002°51'0 0.0
2017-Jun-20 05:00N 53°17' W 002°51'0 0.0
2017-Jun-20 04:30N 53°17' W 002°51'0 0.0
2017-Jun-20 04:00N 53°17' W 002°51'0 0.0
2017-Jun-20 03:30N 53°17' W 002°51'0 0.0
2017-Jun-20 03:00N 53°17' W 002°51'0 0.0
2017-Jun-20 02:30N 53°17' W 002°51'0 0.0
2017-Jun-20 02:00N 53°17' W 002°51'0 0.0
2017-Jun-20 01:30N 53°17' W 002°51'0 0.0
2017-Jun-20 01:00N 53°17' W 002°51'0 0.0
2017-Jun-20 00:30N 53°17' W 002°51'0 0.0
2017-Jun-20 00:00N 53°17' W 002°51'0 0.0
2017-Jun-19 23:30N 53°17' W 002°51'0 0.0
2017-Jun-19 22:57N 53°17' W 002°51'0 0.0
2017-Jun-19 22:30N 53°17' W 002°51'1 1.7
2017-Jun-19 22:00N 53°17' W 002°52'0 0.0
2017-Jun-19 21:30N 53°17' W 002°52'0 0.0
2017-Jun-19 21:00N 53°17' W 002°52'0 0.0
2017-Jun-19 20:24N 53°17' W 002°52'0 0.0
2017-Jun-19 20:00N 53°17' W 002°52'0 0.0
2017-Jun-19 19:30N 53°17' W 002°52'0 0.0
2017-Jun-19 18:48N 53°17' W 002°52'0 0.0
2017-Jun-19 18:30N 53°17' W 002°52'0 0.0
2017-Jun-19 18:00N 53°17' W 002°52'0 0.0
2017-Jun-19 17:30N 53°17' W 002°52'0 0.0
2017-Jun-19 17:00N 53°17' W 002°52'0 0.0
2017-Jun-19 16:30N 53°17' W 002°52'0 0.0
2017-Jun-19 16:00N 53°17' W 002°52'0 0.0
2017-Jun-19 15:30N 53°17' W 002°52'0 0.0
2017-Jun-19 15:00N 53°17' W 002°52'0 0.0
2017-Jun-19 13:57N 53°17' W 002°52'0 0.0
2017-Jun-19 13:30N 53°17' W 002°52'0 0.0
2017-Jun-19 12:48N 53°17' W 002°52'0 0.0
2017-Jun-19 12:30N 53°17' W 002°52'0 0.0
2017-Jun-19 11:57N 53°17' W 002°52'0 0.0
2017-Jun-19 11:30N 53°17' W 002°52'0 0.0
2017-Jun-19 11:00N 53°17' W 002°52'0 0.0
2017-Jun-19 10:30N 53°17' W 002°52'0 0.0
2017-Jun-19 10:00N 53°17' W 002°52'0 0.0
2017-Jun-19 09:30N 53°17' W 002°52'0 0.0
2017-Jun-19 08:48N 53°17' W 002°52'0 0.0
2017-Jun-19 08:30N 53°17' W 002°52'0 0.0
2017-Jun-19 07:54N 53°17' W 002°52'0 0.0
2017-Jun-19 07:27N 53°17' W 002°52'0 0.0
2017-Jun-19 07:00N 53°17' W 002°52'0 0.0
2017-Jun-19 06:30N 53°17' W 002°52'0 0.0
2017-Jun-19 05:57N 53°17' W 002°52'0 0.0
2017-Jun-19 05:27N 53°17' W 002°52'0 0.0
2017-Jun-19 04:57N 53°17' W 002°52'0 0.0
2017-Jun-19 04:30N 53°17' W 002°52'0 0.0
2017-Jun-19 04:00N 53°17' W 002°52'0 0.0
2017-Jun-19 03:30N 53°17' W 002°52'0 0.0
2017-Jun-19 03:00N 53°17' W 002°52'0 0.0
2017-Jun-19 02:30N 53°17' W 002°52'0 0.0
2017-Jun-19 02:00N 53°17' W 002°52'0 0.0
2017-Jun-19 01:30N 53°17' W 002°52'0 0.0
2017-Jun-19 00:54N 53°17' W 002°52'0 0.0
2017-Jun-19 00:30N 53°17' W 002°52'0 0.0
2017-Jun-19 00:00N 53°17' W 002°52'0 0.0
2017-Jun-18 23:30N 53°17' W 002°52'0 0.0
2017-Jun-18 23:00N 53°17' W 002°52'0 0.0
2017-Jun-18 22:30N 53°17' W 002°52'0 0.0
2017-Jun-18 21:57N 53°17' W 002°52'0 0.0
2017-Jun-18 21:30N 53°17' W 002°52'0 0.0
2017-Jun-18 20:57N 53°17' W 002°52'0 0.0
2017-Jun-18 20:18N 53°17' W 002°52'0 0.0
2017-Jun-18 20:00N 53°17' W 002°52'0 0.0
2017-Jun-18 19:30N 53°17' W 002°52'0 0.0
2017-Jun-18 19:00N 53°17' W 002°52'0 0.0
2017-Jun-18 18:24N 53°17' W 002°52'0 0.0
2017-Jun-18 18:00N 53°17' W 002°52'0 0.0
2017-Jun-18 17:27N 53°17' W 002°52'0 0.0
2017-Jun-18 17:00N 53°17' W 002°52'0 0.0
2017-Jun-18 16:27N 53°17' W 002°52'0 0.0
2017-Jun-18 16:00N 53°17' W 002°52'0 0.0
2017-Jun-18 15:27N 53°17' W 002°52'0 0.0
2017-Jun-18 14:48N 53°17' W 002°52'0 0.0
2017-Jun-18 14:00N 53°17' W 002°52'0 0.0
2017-Jun-18 13:30N 53°17' W 002°52'0 0.0
2017-Jun-18 13:00N 53°17' W 002°52'0 0.0
2017-Jun-18 12:30N 53°17' W 002°52'0 0.0
2017-Jun-18 12:00N 53°17' W 002°52'0 0.0
2017-Jun-18 11:30N 53°17' W 002°52'0 0.0
2017-Jun-18 11:00N 53°17' W 002°52'0 0.0
2017-Jun-18 10:30N 53°17' W 002°52'0 0.0
2017-Jun-18 09:57N 53°17' W 002°52'0 0.0
2017-Jun-18 09:27N 53°17' W 002°52'0 0.0
2017-Jun-18 09:00N 53°17' W 002°52'0 0.0
2017-Jun-18 08:27N 53°17' W 002°52'0 0.0
2017-Jun-18 08:00N 53°17' W 002°52'0 0.0
2017-Jun-18 07:27N 53°17' W 002°52'0 0.0
2017-Jun-18 07:00N 53°17' W 002°52'0 0.0
2017-Jun-18 06:30N 53°17' W 002°52'1 1.2
2017-Jun-18 05:56N 53°17' W 002°51'0 0.0
2017-Jun-18 05:26N 53°17' W 002°51'0 0.0
2017-Jun-18 04:59N 53°17' W 002°51'0 0.0
2017-Jun-18 04:29N 53°17' W 002°51'0 0.0
2017-Jun-18 03:59N 53°17' W 002°51'0 0.0
2017-Jun-18 03:29N 53°17' W 002°51'0 0.0
2017-Jun-18 02:59N 53°17' W 002°51'0 0.0
2017-Jun-18 02:26N 53°17' W 002°51'0 0.0
2017-Jun-18 01:59N 53°17' W 002°51'0 0.0
2017-Jun-18 01:29N 53°17' W 002°51'0 0.0
2017-Jun-18 00:59N 53°17' W 002°51'0 0.5
2017-Jun-18 00:29N 53°17' W 002°51'0 0.7
2017-Jun-17 23:50N 53°17' W 002°52'0 0.0
2017-Jun-17 23:29N 53°17' W 002°52'0 0.0
2017-Jun-17 22:59N 53°17' W 002°52'0 0.0
2017-Jun-17 22:29N 53°17' W 002°52'0 0.0
2017-Jun-17 21:59N 53°17' W 002°52'0 0.0
2017-Jun-17 21:29N 53°17' W 002°52'0 0.0
2017-Jun-17 20:59N 53°17' W 002°52'0 0.0
2017-Jun-17 20:29N 53°17' W 002°52'0 0.0
2017-Jun-17 19:59N 53°17' W 002°52'0 0.0
2017-Jun-17 19:29N 53°17' W 002°52'0 0.0
2017-Jun-17 18:59N 53°17' W 002°52'0 0.0
2017-Jun-17 18:26N 53°17' W 002°52'0 0.0
2017-Jun-17 17:56N 53°17' W 002°52'0 0.0
2017-Jun-17 17:29N 53°17' W 002°52'0 0.0
2017-Jun-17 16:59N 53°17' W 002°52'0 0.0
2017-Jun-17 16:29N 53°17' W 002°52'0 0.0
2017-Jun-17 15:59N 53°17' W 002°52'0 0.0
2017-Jun-17 15:29N 53°17' W 002°52'0 0.0
2017-Jun-17 14:59N 53°17' W 002°52'0 0.0
2017-Jun-17 13:59N 53°17' W 002°52'0 0.0
2017-Jun-17 13:29N 53°17' W 002°52'0 0.0
2017-Jun-17 12:59N 53°17' W 002°52'0 0.0
2017-Jun-17 12:29N 53°17' W 002°52'0 0.0
2017-Jun-17 11:59N 53°17' W 002°52'0 0.0
2017-Jun-17 11:29N 53°17' W 002°52'0 0.0
2017-Jun-17 10:59N 53°17' W 002°52'0 0.0
2017-Jun-17 10:29N 53°17' W 002°52'0 0.0
2017-Jun-17 09:59N 53°17' W 002°52'0 0.0
2017-Jun-17 09:29N 53°17' W 002°52'0 0.0
2017-Jun-17 08:59N 53°17' W 002°52'0 0.0
2017-Jun-17 08:26N 53°17' W 002°52'0 0.0
2017-Jun-17 07:59N 53°17' W 002°52'0 0.0
2017-Jun-17 07:29N 53°17' W 002°52'0 0.0
2017-Jun-17 06:50N 53°17' W 002°52'0 0.0
2017-Jun-17 06:30N 53°17' W 002°52'0 1.0
2017-Jun-17 06:00N 53°17' W 002°53'2 3.3
2017-Jun-17 05:30N 53°18' W 002°55'1 3.0
2017-Jun-17 05:00N 53°19' W 002°57'1 1.3
2017-Jun-17 04:30N 53°20' W 002°57'2 3.7
2017-Jun-17 04:00N 53°22' W 002°58'2 4.9
2017-Jun-17 03:30N 53°24' W 003°00'3 6.8
2017-Jun-17 03:00N 53°27' W 003°02'4 8.2
2017-Jun-17 02:30N 53°30' W 003°06'4 7.2
2017-Jun-17 02:00N 53°31' W 003°12'4 8.7
2017-Jun-17 01:30N 53°31' W 003°19'4 7.5
2017-Jun-17 01:00N 53°30' W 003°25'0 0.6
2017-Jun-17 00:28N 53°29' W 003°25'0 0.0
2017-Jun-16 23:58N 53°29' W 003°25'0 0.0
2017-Jun-16 23:25N 53°29' W 003°25'0 0.0
2017-Jun-16 22:58N 53°29' W 003°25'0 0.0
2017-Jun-16 22:28N 53°29' W 003°25'0 0.0
2017-Jun-16 21:55N 53°29' W 003°25'0 0.0
2017-Jun-16 21:28N 53°29' W 003°25'0 0.0
2017-Jun-16 20:58N 53°29' W 003°25'0 0.1
2017-Jun-16 20:25N 53°29' W 003°26'0 0.0
2017-Jun-16 19:58N 53°29' W 003°26'0 0.0
2017-Jun-16 19:25N 53°29' W 003°26'0 0.0
2017-Jun-16 18:58N 53°29' W 003°26'0 0.0
2017-Jun-16 18:28N 53°29' W 003°26'0 0.0
2017-Jun-16 17:58N 53°29' W 003°26'0 0.2
2017-Jun-16 17:31N 53°29' W 003°25'4 8.5
2017-Jun-16 17:00N 53°30' W 003°33'5 9.7
2017-Jun-16 16:30N 53°31' W 003°41'5 9.8
2017-Jun-16 16:00N 53°33' W 003°48'610.1
2017-Jun-16 15:27N 53°35' W 003°57'68 4.9
2017-Jun-16 01:39N 53°16' W 005°45'1 3.7
2017-Jun-16 01:25N 53°16' W 005°47'2 3.6
2017-Jun-16 00:59N 53°17' W 005°49'2 3.9
2017-Jun-16 00:30N 53°18' W 005°51'2 4.2
2017-Jun-16 00:00N 53°20' W 005°54'2 4.3
2017-Jun-15 23:30N 53°20' W 005°57'2 4.5
2017-Jun-15 23:00N 53°21' W 006°01'3 6.1
2017-Jun-15 22:30N 53°20' W 006°06'4 0.8
2017-Jun-15 18:01N 53°21' W 006°12'0 0.0
2017-Jun-15 17:31N 53°21' W 006°12'0 0.0
2017-Jun-15 17:28N 53°21' W 006°12'0 0.0
2017-Jun-15 16:55N 53°21' W 006°12'0 0.0
2017-Jun-15 16:28N 53°21' W 006°12'0 0.0
2017-Jun-15 15:55N 53°21' W 006°12'0 0.0
2017-Jun-15 15:22N 53°21' W 006°12'0 0.0
2017-Jun-15 14:49N 53°21' W 006°12'0 0.0
2017-Jun-15 13:40N 53°21' W 006°12'0 0.0
2017-Jun-15 13:28N 53°21' W 006°12'0 0.0
2017-Jun-15 11:52N 53°21' W 006°12'0 0.0
2017-Jun-15 11:22N 53°21' W 006°12'0 0.0
2017-Jun-15 10:13N 53°21' W 006°12'0 0.0
2017-Jun-15 09:40N 53°21' W 006°12'0 0.0
2017-Jun-15 09:28N 53°21' W 006°12'0 0.0
2017-Jun-15 08:58N 53°21' W 006°12'0 0.0
2017-Jun-15 08:28N 53°21' W 006°12'0 0.0
2017-Jun-15 07:28N 53°21' W 006°12'0 0.0
2017-Jun-15 06:52N 53°21' W 006°12'0 0.0
2017-Jun-15 06:22N 53°21' W 006°12'0 0.9
2017-Jun-15 06:00N 53°21' W 006°12'4 9.0
2017-Jun-15 05:30N 53°20' W 006°05'4 8.5
2017-Jun-15 05:00N 53°16' W 006°01'55 8.9
2017-Jun-14 22:46N 52°21' W 005°55'312.2
2017-Jun-14 22:29N 52°18' W 005°56'611.6
2017-Jun-14 22:00N 52°12' W 005°58'711.1
2017-Jun-14 21:24N 52°06' W 006°02'411.0
2017-Jun-14 21:00N 52°03' W 006°08'710.4
2017-Jun-14 20:22N 51°60' W 006°17'1510.0
2017-Jun-14 18:50N 51°53' W 006°39'  

Dump ship's entire track history